Time,TemperatureF,DewpointF,PressureIn,WindDirection,WindDirectionDegrees,WindSpeedMPH,WindSpeedGustMPH,Humidity,HourlyPrecipIn,Conditions,Clouds,dailyrainin,SoftwareType,DateUTC
2014-12-20 00:00:00,53.1,48.4,30.00,SE,135,7.4,7.4,84,0.00,,---,0.00,VWS V14.00,2014-12-20 08:00:00,
2014-12-20 00:05:00,53.1,48.4,30.00,ESE,112,6.3,7.4,84,0.00,,---,0.00,VWS V14.00,2014-12-20 08:05:00,
2014-12-20 00:11:00,53.1,48.7,30.00,SE,135,7.8,7.8,85,0.00,,---,0.00,VWS V14.00,2014-12-20 08:11:00,
2014-12-20 00:16:00,53.1,48.7,30.00,SE,135,7.4,7.4,85,0.00,,---,0.00,VWS V14.00,2014-12-20 08:16:00,
2014-12-20 00:21:00,52.9,48.8,30.00,ESE,112,3.4,5.6,86,0.00,,---,0.00,VWS V14.00,2014-12-20 08:21:00,
2014-12-20 00:26:00,52.9,49.1,30.00,SE,135,4.0,7.4,87,0.00,,---,0.00,VWS V14.00,2014-12-20 08:26:00,
2014-12-20 00:31:00,52.9,49.1,30.00,SE,135,6.0,6.0,87,0.00,,---,0.00,VWS V14.00,2014-12-20 08:31:00,
2014-12-20 00:36:00,52.9,49.4,30.00,SE,135,6.5,6.5,88,0.00,,---,0.00,VWS V14.00,2014-12-20 08:36:00,
2014-12-20 00:41:00,52.9,49.7,30.00,SE,135,7.8,9.0,89,0.00,,---,0.00,VWS V14.00,2014-12-20 08:41:00,
2014-12-20 00:46:00,52.9,49.7,30.00,SE,135,5.6,7.8,89,0.00,,---,0.00,VWS V14.00,2014-12-20 08:46:00,
2014-12-20 00:51:00,52.7,49.8,30.00,SE,135,4.0,6.0,90,0.00,,---,0.00,VWS V14.00,2014-12-20 08:51:00,
2014-12-20 00:56:00,52.9,50.0,29.97,SE,135,5.6,10.1,90,0.00,,---,0.00,VWS V14.00,2014-12-20 08:56:00,
2014-12-20 01:01:00,52.7,49.8,29.97,ESE,112,6.0,6.0,90,0.00,,---,0.00,VWS V14.00,2014-12-20 09:01:00,
2014-12-20 01:06:00,52.7,50.2,29.97,SE,135,6.0,6.0,91,0.00,,---,0.00,VWS V14.00,2014-12-20 09:06:00,
2014-12-20 01:11:00,52.7,50.2,29.97,SE,135,6.3,6.3,91,0.00,,---,0.00,VWS V14.00,2014-12-20 09:11:00,
2014-12-20 01:16:00,52.7,50.2,29.97,SE,135,4.9,11.0,91,0.00,,---,0.00,VWS V14.00,2014-12-20 09:16:00,
2014-12-20 01:21:00,52.7,50.2,29.97,SE,135,6.5,6.5,91,0.00,,---,0.00,VWS V14.00,2014-12-20 09:21:00,
2014-12-20 01:26:00,52.7,50.5,30.00,SE,135,3.8,7.6,92,0.00,,---,0.00,VWS V14.00,2014-12-20 09:26:00,
2014-12-20 01:31:00,52.7,50.5,30.00,SSE,158,4.9,6.5,92,0.00,,---,0.00,VWS V14.00,2014-12-20 09:31:00,
2014-12-20 01:36:00,52.7,50.5,30.00,SE,135,4.0,6.5,92,0.00,,---,0.00,VWS V14.00,2014-12-20 09:36:00,
2014-12-20 01:41:00,52.7,50.7,29.97,ESE,112,4.9,5.8,93,0.00,,---,0.00,VWS V14.00,2014-12-20 09:41:00,
2014-12-20 01:46:00,52.7,50.7,29.97,SE,135,5.4,10.1,93,0.00,,---,0.00,VWS V14.00,2014-12-20 09:46:00,
2014-12-20 01:51:00,52.9,50.9,29.97,SE,135,3.8,7.4,93,0.00,,---,0.00,VWS V14.00,2014-12-20 09:51:00,
2014-12-20 01:56:00,52.9,51.2,29.97,ESE,112,7.8,8.7,94,0.00,,---,0.00,VWS V14.00,2014-12-20 09:56:00,
2014-12-20 02:01:00,52.9,51.2,29.97,SE,135,8.1,8.1,94,0.00,,---,0.00,VWS V14.00,2014-12-20 10:01:00,
2014-12-20 02:06:00,52.9,51.2,29.97,ESE,112,5.6,5.6,94,0.00,,---,0.00,VWS V14.00,2014-12-20 10:06:00,
2014-12-20 02:11:00,52.9,51.2,29.97,SE,135,6.0,9.6,94,0.00,,---,0.00,VWS V14.00,2014-12-20 10:11:00,
2014-12-20 02:16:00,52.9,51.2,29.97,SE,135,7.2,7.8,94,0.00,,---,0.00,VWS V14.00,2014-12-20 10:16:00,
2014-12-20 02:21:00,52.9,51.2,29.97,SE,135,7.6,9.8,94,0.00,,---,0.00,VWS V14.00,2014-12-20 10:21:00,
2014-12-20 02:26:00,52.9,51.2,30.00,SE,135,4.3,7.6,94,0.00,,---,0.00,VWS V14.00,2014-12-20 10:26:00,
2014-12-20 02:31:00,52.9,51.2,30.00,SE,135,6.9,6.9,94,0.00,,---,0.00,VWS V14.00,2014-12-20 10:31:00,
2014-12-20 02:36:00,52.9,51.2,30.00,SE,135,5.8,8.7,94,0.00,,---,0.00,VWS V14.00,2014-12-20 10:36:00,
2014-12-20 02:41:00,52.9,51.2,29.97,ESE,112,2.7,7.8,94,0.00,,---,0.00,VWS V14.00,2014-12-20 10:41:00,
2014-12-20 02:46:00,52.7,51.0,29.97,ESE,112,4.0,6.3,94,0.00,,---,0.00,VWS V14.00,2014-12-20 10:46:00,
2014-12-20 02:51:00,52.7,51.0,29.97,SE,135,6.5,6.5,94,0.00,,---,0.00,VWS V14.00,2014-12-20 10:51:00,
2014-12-20 02:56:00,52.7,51.0,29.97,ESE,112,2.5,5.4,94,0.00,,---,0.00,VWS V14.00,2014-12-20 10:56:00,
2014-12-20 03:01:00,52.9,51.5,29.97,SE,135,3.6,4.7,95,0.00,,---,0.00,VWS V14.00,2014-12-20 11:01:00,
2014-12-20 03:06:00,52.9,51.5,29.97,SE,135,5.4,8.7,95,0.00,,---,0.00,VWS V14.00,2014-12-20 11:06:00,
2014-12-20 03:11:00,52.9,51.5,30.00,ESE,112,4.7,8.7,95,0.00,,---,0.00,VWS V14.00,2014-12-20 11:11:00,
2014-12-20 03:16:00,52.9,51.5,30.00,SE,135,6.5,7.4,95,0.00,,---,0.00,VWS V14.00,2014-12-20 11:16:00,
2014-12-20 03:21:00,52.9,51.5,30.00,ESE,112,6.0,6.3,95,0.00,,---,0.00,VWS V14.00,2014-12-20 11:21:00,
2014-12-20 03:26:00,53.1,51.7,30.00,SE,135,3.4,7.8,95,0.00,,---,0.00,VWS V14.00,2014-12-20 11:26:00,
2014-12-20 03:31:00,53.1,51.7,30.00,SE,135,4.3,6.0,95,0.00,,---,0.00,VWS V14.00,2014-12-20 11:31:00,
2014-12-20 03:36:00,52.9,51.5,30.00,SE,135,6.0,7.8,95,0.00,,---,0.00,VWS V14.00,2014-12-20 11:36:00,
2014-12-20 03:41:00,52.9,51.5,29.97,SE,135,5.8,7.2,95,0.00,,---,0.00,VWS V14.00,2014-12-20 11:41:00,
2014-12-20 03:46:00,53.1,51.7,29.97,ESE,112,5.4,5.6,95,0.00,,---,0.00,VWS V14.00,2014-12-20 11:46:00,
2014-12-20 03:51:00,52.9,51.5,29.97,NE,45,4.9,6.3,95,0.00,,---,0.00,VWS V14.00,2014-12-20 11:51:00,
2014-12-20 03:56:00,52.9,51.5,30.00,SE,135,3.8,4.9,95,0.00,,---,0.00,VWS V14.00,2014-12-20 11:56:00,
2014-12-20 04:01:00,52.9,51.2,30.00,SE,135,3.1,4.7,94,0.00,,---,0.00,VWS V14.00,2014-12-20 12:01:00,
2014-12-20 04:06:00,52.9,51.2,30.00,ESE,112,3.6,5.8,94,0.00,,---,0.00,VWS V14.00,2014-12-20 12:06:00,
2014-12-20 04:11:00,52.9,51.2,29.97,ESE,112,2.0,6.5,94,0.00,,---,0.00,VWS V14.00,2014-12-20 12:11:00,
2014-12-20 04:16:00,52.9,51.2,29.97,East,90,3.1,4.7,94,0.00,,---,0.00,VWS V14.00,2014-12-20 12:16:00,
2014-12-20 04:21:00,52.9,51.5,29.97,ESE,112,3.1,5.6,95,0.00,,---,0.00,VWS V14.00,2014-12-20 12:21:00,
2014-12-20 04:26:00,52.9,51.5,29.97,SE,135,3.6,5.4,95,0.00,,---,0.00,VWS V14.00,2014-12-20 12:26:00,
2014-12-20 04:31:00,52.9,51.5,29.97,ESE,112,3.6,3.6,95,0.00,,---,0.00,VWS V14.00,2014-12-20 12:31:00,
2014-12-20 04:36:00,52.9,51.5,29.97,SE,135,2.9,4.0,95,0.00,,---,0.00,VWS V14.00,2014-12-20 12:36:00,
2014-12-20 04:41:00,52.9,51.5,29.97,East,90,7.6,7.6,95,0.00,,---,0.00,VWS V14.00,2014-12-20 12:41:00,
2014-12-20 04:46:00,52.9,51.5,29.97,ESE,112,7.6,7.6,95,0.00,,---,0.00,VWS V14.00,2014-12-20 12:46:00,
2014-12-20 04:51:00,52.9,51.5,29.97,SE,135,6.5,7.4,95,0.00,,---,0.00,VWS V14.00,2014-12-20 12:51:00,
2014-12-20 04:56:00,52.9,51.5,30.00,ESE,112,6.3,6.5,95,0.00,,---,0.00,VWS V14.00,2014-12-20 12:56:00,
2014-12-20 05:01:00,52.9,51.5,30.00,ESE,112,4.0,7.8,95,0.00,,---,0.00,VWS V14.00,2014-12-20 13:01:00,
2014-12-20 05:06:00,52.9,51.5,30.00,ESE,112,4.3,6.0,95,0.00,,---,0.00,VWS V14.00,2014-12-20 13:06:00,
2014-12-20 05:11:00,52.9,51.5,29.97,ESE,112,4.7,7.4,95,0.00,,---,0.00,VWS V14.00,2014-12-20 13:11:00,
2014-12-20 05:16:00,53.1,51.7,29.97,ESE,112,6.5,7.6,95,0.00,,---,0.00,VWS V14.00,2014-12-20 13:16:00,
2014-12-20 05:21:00,53.1,51.7,29.97,East,90,4.0,9.8,95,0.00,,---,0.00,VWS V14.00,2014-12-20 13:21:00,
2014-12-20 05:26:00,53.1,51.7,29.97,ESE,112,11.0,11.0,95,0.00,,---,0.00,VWS V14.00,2014-12-20 13:26:00,
2014-12-20 05:31:00,53.1,51.7,29.97,ESE,112,12.5,12.5,95,0.00,,---,0.00,VWS V14.00,2014-12-20 13:31:00,
2014-12-20 05:36:00,53.1,51.7,29.97,ESE,112,7.6,8.1,95,0.00,,---,0.00,VWS V14.00,2014-12-20 13:36:00,
2014-12-20 05:41:00,53.1,51.7,29.97,ESE,112,6.0,7.8,95,0.00,,---,0.00,VWS V14.00,2014-12-20 13:41:00,
2014-12-20 05:46:00,53.1,51.7,29.97,SE,135,5.8,12.1,95,0.00,,---,0.00,VWS V14.00,2014-12-20 13:46:00,
2014-12-20 05:51:00,53.1,51.7,29.97,SE,135,6.0,8.7,95,0.00,,---,0.00,VWS V14.00,2014-12-20 13:51:00,
2014-12-20 05:56:00,53.1,51.7,29.97,SE,135,5.6,6.9,95,0.00,,---,0.00,VWS V14.00,2014-12-20 13:56:00,
2014-12-20 06:01:00,53.1,51.7,29.97,SE,135,7.6,10.7,95,0.00,,---,0.00,VWS V14.00,2014-12-20 14:01:00,
2014-12-20 06:06:00,53.1,51.4,29.97,ENE,68,6.0,6.5,94,0.00,,---,0.00,VWS V14.00,2014-12-20 14:06:00,
2014-12-20 06:11:00,53.1,51.4,29.97,SE,135,7.8,8.5,94,0.00,,---,0.00,VWS V14.00,2014-12-20 14:11:00,
2014-12-20 06:16:00,53.2,51.6,29.97,ESE,112,4.9,6.5,94,0.00,,---,0.00,VWS V14.00,2014-12-20 14:16:00,
2014-12-20 06:21:00,53.2,51.6,29.97,SE,135,7.8,12.5,94,0.00,,---,0.00,VWS V14.00,2014-12-20 14:21:00,
2014-12-20 06:26:00,53.2,51.6,29.97,SE,135,4.0,7.6,94,0.00,,---,0.00,VWS V14.00,2014-12-20 14:26:00,
2014-12-20 06:31:00,53.2,51.6,29.97,SE,135,10.1,10.1,94,0.00,,---,0.00,VWS V14.00,2014-12-20 14:31:00,
2014-12-20 06:36:00,53.2,51.6,29.97,SE,135,6.5,10.7,94,0.00,,---,0.00,VWS V14.00,2014-12-20 14:36:00,
2014-12-20 06:41:00,53.2,51.3,30.00,SSE,158,4.0,8.5,93,0.00,,---,0.00,VWS V14.00,2014-12-20 14:41:00,
2014-12-20 06:46:00,53.2,51.3,30.00,SE,135,8.1,8.7,93,0.00,,---,0.00,VWS V14.00,2014-12-20 14:46:00,
2014-12-20 06:51:00,53.2,51.3,30.00,SE,135,10.3,11.4,93,0.00,,---,0.00,VWS V14.00,2014-12-20 14:51:00,
2014-12-20 06:56:00,53.2,51.3,29.97,SE,135,9.8,9.8,93,0.00,,---,0.00,VWS V14.00,2014-12-20 14:56:00,
2014-12-20 07:01:00,53.2,51.3,29.97,SE,135,4.0,7.6,93,0.00,,---,0.00,VWS V14.00,2014-12-20 15:01:00,
2014-12-20 07:06:00,53.2,51.0,29.97,SE,135,4.9,5.6,92,0.00,,---,0.00,VWS V14.00,2014-12-20 15:06:00,
2014-12-20 07:11:00,53.2,51.0,30.00,South,180,4.9,5.6,92,0.00,,---,0.00,VWS V14.00,2014-12-20 15:11:00,
2014-12-20 07:16:00,53.2,51.0,30.00,SE,135,4.9,4.9,92,0.00,,---,0.00,VWS V14.00,2014-12-20 15:16:00,
2014-12-20 07:21:00,53.2,51.0,30.00,SE,135,5.4,5.8,92,0.00,,---,0.00,VWS V14.00,2014-12-20 15:21:00,
2014-12-20 07:26:00,53.2,51.0,30.00,SE,135,6.7,6.7,92,0.00,,---,0.00,VWS V14.00,2014-12-20 15:26:00,
2014-12-20 07:31:00,53.2,51.0,30.00,East,90,3.1,6.5,92,0.00,,---,0.00,VWS V14.00,2014-12-20 15:31:00,
2014-12-20 07:36:00,53.2,51.0,30.00,SE,135,6.3,6.7,92,0.00,,---,0.00,VWS V14.00,2014-12-20 15:36:00,
2014-12-20 07:41:00,53.2,51.0,30.00,SE,135,7.6,7.6,92,0.00,,---,0.00,VWS V14.00,2014-12-20 15:41:00,
2014-12-20 07:46:00,53.2,50.7,30.00,SE,135,5.6,8.5,91,0.00,,---,0.00,VWS V14.00,2014-12-20 15:46:00,
2014-12-20 07:51:00,53.2,50.7,30.00,SE,135,6.0,9.8,91,0.00,,---,0.00,VWS V14.00,2014-12-20 15:51:00,
2014-12-20 07:56:00,53.2,50.7,30.00,SSE,158,5.8,11.9,91,0.00,,---,0.00,VWS V14.00,2014-12-20 15:56:00,
2014-12-20 08:01:00,53.2,50.7,30.00,East,90,6.3,7.2,91,0.00,,---,0.00,VWS V14.00,2014-12-20 16:01:00,
2014-12-20 08:06:00,53.4,50.6,30.00,SE,135,8.1,12.1,90,0.00,,---,0.00,VWS V14.00,2014-12-20 16:06:00,
2014-12-20 08:11:00,53.4,50.6,30.00,SE,135,5.6,7.6,90,0.00,,---,0.00,VWS V14.00,2014-12-20 16:11:00,
2014-12-20 08:16:00,53.4,50.3,30.00,ESE,112,5.8,10.5,89,0.00,,---,0.00,VWS V14.00,2014-12-20 16:16:00,
2014-12-20 08:21:00,53.4,50.3,30.00,ESE,112,10.7,10.7,89,0.00,,---,0.00,VWS V14.00,2014-12-20 16:21:00,
2014-12-20 08:26:00,53.6,50.1,30.03,ESE,112,5.8,9.8,88,0.00,,---,0.00,VWS V14.00,2014-12-20 16:26:00,
2014-12-20 08:31:00,53.6,50.1,30.03,East,90,4.0,7.4,88,0.00,,---,0.00,VWS V14.00,2014-12-20 16:31:00,
2014-12-20 08:36:00,53.6,50.1,30.03,SE,135,7.8,11.2,88,0.00,,---,0.00,VWS V14.00,2014-12-20 16:36:00,
2014-12-20 08:41:00,53.6,50.1,30.03,SE,135,9.6,9.6,88,0.00,,---,0.00,VWS V14.00,2014-12-20 16:41:00,
2014-12-20 08:46:00,53.6,49.8,30.03,SE,135,5.6,9.6,87,0.00,,---,0.00,VWS V14.00,2014-12-20 16:46:00,
2014-12-20 08:51:00,53.6,49.8,30.03,SE,135,8.5,10.7,87,0.00,,---,0.00,VWS V14.00,2014-12-20 16:51:00,
2014-12-20 08:56:00,53.6,49.8,30.03,SE,135,9.8,12.8,87,0.00,,---,0.00,VWS V14.00,2014-12-20 16:56:00,
2014-12-20 09:01:00,53.6,49.8,30.03,SE,135,4.0,12.8,87,0.00,,---,0.00,VWS V14.00,2014-12-20 17:01:00,
2014-12-20 09:06:00,53.6,49.8,30.03,SE,135,6.5,7.6,87,0.00,,---,0.00,VWS V14.00,2014-12-20 17:06:00,
2014-12-20 09:11:00,53.6,50.1,30.03,SE,135,7.4,7.4,88,0.00,,---,0.00,VWS V14.00,2014-12-20 17:11:00,
2014-12-20 09:16:00,53.6,50.4,30.03,SE,135,6.3,7.8,89,0.00,,---,0.00,VWS V14.00,2014-12-20 17:16:00,
2014-12-20 09:21:00,53.6,50.7,30.03,SE,135,5.8,9.6,90,0.00,,---,0.00,VWS V14.00,2014-12-20 17:21:00,
2014-12-20 09:26:00,53.6,50.7,30.03,ESE,112,10.3,10.3,90,0.00,,---,0.00,VWS V14.00,2014-12-20 17:26:00,
2014-12-20 09:31:00,53.6,51.0,30.03,SE,135,13.0,14.3,91,0.00,,---,0.00,VWS V14.00,2014-12-20 17:31:00,
2014-12-20 09:36:00,53.6,51.0,30.03,ESE,112,7.6,12.3,91,0.00,,---,0.00,VWS V14.00,2014-12-20 17:36:00,
2014-12-20 09:42:00,53.6,51.0,30.03,SE,135,9.8,9.8,91,0.00,,---,0.00,VWS V14.00,2014-12-20 17:42:00,
2014-12-20 09:48:00,53.6,51.3,30.03,SE,135,11.0,11.0,92,0.00,,---,0.00,VWS V14.00,2014-12-20 17:48:00,
2014-12-20 09:53:00,53.6,51.3,30.03,SE,135,6.3,11.0,92,0.00,,---,0.00,VWS V14.00,2014-12-20 17:53:00,
2014-12-20 09:58:00,53.6,51.6,30.03,SE,135,7.8,7.8,93,0.00,,---,0.00,VWS V14.00,2014-12-20 17:58:00,
2014-12-20 10:03:00,53.6,51.6,30.03,ESE,112,10.5,11.9,93,0.04,,---,0.04,VWS V14.00,2014-12-20 18:03:00,
2014-12-20 10:08:00,53.6,51.6,30.03,SE,135,8.7,8.7,93,0.04,,---,0.04,VWS V14.00,2014-12-20 18:08:00,
2014-12-20 10:14:00,53.8,51.8,30.06,ESE,112,5.4,12.1,93,0.04,,---,0.04,VWS V14.00,2014-12-20 18:14:00,
2014-12-20 10:19:00,53.8,51.8,30.06,SE,135,8.1,8.1,93,0.04,,---,0.04,VWS V14.00,2014-12-20 18:19:00,
2014-12-20 10:24:00,53.8,51.8,30.03,SE,135,7.4,10.1,93,0.04,,---,0.04,VWS V14.00,2014-12-20 18:24:00,
2014-12-20 10:29:00,54.0,52.0,30.03,ESE,112,8.5,15.2,93,0.04,,---,0.04,VWS V14.00,2014-12-20 18:29:00,
2014-12-20 10:34:00,54.0,52.0,30.03,ESE,112,12.8,15.2,93,0.04,,---,0.04,VWS V14.00,2014-12-20 18:34:00,
2014-12-20 10:39:00,54.1,51.9,30.03,SE,135,8.1,14.5,92,0.04,,---,0.04,VWS V14.00,2014-12-20 18:39:00,
2014-12-20 10:44:00,54.5,52.2,30.03,SE,135,12.5,12.5,92,0.04,,---,0.04,VWS V14.00,2014-12-20 18:44:00,
2014-12-20 10:49:00,54.5,52.2,30.03,SE,135,9.0,11.0,92,0.04,,---,0.04,VWS V14.00,2014-12-20 18:49:00,
2014-12-20 10:54:00,54.5,51.9,30.03,SE,135,6.0,11.9,91,0.04,,---,0.04,VWS V14.00,2014-12-20 18:54:00,
2014-12-20 10:59:00,54.5,51.9,30.03,SE,135,8.5,8.5,91,0.04,,---,0.04,VWS V14.00,2014-12-20 18:59:00,
2014-12-20 11:04:00,54.3,51.5,30.03,East,90,10.3,11.0,90,0.00,,---,0.04,VWS V14.00,2014-12-20 19:04:00,
2014-12-20 11:09:00,54.5,51.6,30.03,East,90,7.4,10.1,90,0.00,,---,0.04,VWS V14.00,2014-12-20 19:09:00,
2014-12-20 11:14:00,54.7,51.8,30.03,ESE,112,6.3,9.8,90,0.00,,---,0.04,VWS V14.00,2014-12-20 19:14:00,
2014-12-20 11:19:00,54.7,51.8,30.03,SE,135,10.1,14.8,90,0.00,,---,0.04,VWS V14.00,2014-12-20 19:19:00,
2014-12-20 11:24:00,54.9,51.7,30.03,SE,135,13.0,13.0,89,0.00,,---,0.04,VWS V14.00,2014-12-20 19:24:00,
2014-12-20 11:29:00,54.7,51.5,30.03,ESE,112,8.7,12.8,89,0.00,,---,0.04,VWS V14.00,2014-12-20 19:29:00,
2014-12-20 11:34:00,54.7,51.5,30.03,ESE,112,13.9,13.9,89,0.00,,---,0.04,VWS V14.00,2014-12-20 19:34:00,
2014-12-20 11:39:00,54.9,51.7,30.03,East,90,10.3,11.2,89,0.00,,---,0.04,VWS V14.00,2014-12-20 19:39:00,
2014-12-20 11:44:00,54.9,51.4,30.03,SE,135,9.8,9.8,88,0.00,,---,0.04,VWS V14.00,2014-12-20 19:44:00,
2014-12-20 11:49:00,54.9,51.4,30.03,SE,135,8.1,12.1,88,0.00,,---,0.04,VWS V14.00,2014-12-20 19:49:00,
2014-12-20 11:54:00,54.7,51.2,30.03,SE,135,7.4,7.6,88,0.00,,---,0.04,VWS V14.00,2014-12-20 19:54:00,
2014-12-20 12:00:00,54.7,51.5,30.03,SE,135,7.8,10.7,89,0.00,,---,0.04,VWS V14.00,2014-12-20 20:00:00,
2014-12-20 12:06:00,54.9,51.7,30.03,ESE,112,4.0,11.0,89,0.00,,---,0.04,VWS V14.00,2014-12-20 20:06:00,
2014-12-20 12:11:00,54.9,51.7,30.03,SE,135,5.8,8.5,89,0.00,,---,0.04,VWS V14.00,2014-12-20 20:11:00,
2014-12-20 12:16:00,54.9,51.4,30.03,SE,135,13.0,13.0,88,0.00,,---,0.04,VWS V14.00,2014-12-20 20:16:00,
2014-12-20 12:21:00,54.9,51.4,30.03,SE,135,9.8,11.0,88,0.00,,---,0.04,VWS V14.00,2014-12-20 20:21:00,
2014-12-20 12:26:00,54.9,51.4,30.00,SE,135,5.6,11.4,88,0.00,,---,0.04,VWS V14.00,2014-12-20 20:26:00,
2014-12-20 12:31:00,54.9,51.7,30.00,SE,135,7.6,12.8,89,0.00,,---,0.04,VWS V14.00,2014-12-20 20:31:00,
2014-12-20 12:36:00,54.9,51.7,30.00,ENE,68,7.6,11.0,89,0.00,,---,0.04,VWS V14.00,2014-12-20 20:36:00,
2014-12-20 12:41:00,54.9,51.7,30.03,East,90,6.3,7.2,89,0.00,,---,0.04,VWS V14.00,2014-12-20 20:41:00,
2014-12-20 12:47:00,55.0,51.9,30.03,ESE,112,5.4,14.3,89,0.00,,---,0.04,VWS V14.00,2014-12-20 20:47:00,
2014-12-20 12:52:00,55.0,51.9,30.03,NNE,22,4.0,6.0,89,0.00,,---,0.04,VWS V14.00,2014-12-20 20:52:00,
2014-12-20 12:57:00,55.0,51.9,30.03,SE,135,11.0,11.0,89,0.00,,---,0.04,VWS V14.00,2014-12-20 20:57:00,
2014-12-20 13:02:00,55.2,52.0,30.03,ESE,112,11.0,12.1,89,0.00,,---,0.04,VWS V14.00,2014-12-20 21:02:00,
2014-12-20 13:07:00,55.2,52.0,30.03,NE,45,4.9,11.4,89,0.00,,---,0.04,VWS V14.00,2014-12-20 21:07:00,
2014-12-20 13:12:00,55.0,52.2,30.00,SE,135,9.6,13.4,90,0.00,,---,0.04,VWS V14.00,2014-12-20 21:12:00,
2014-12-20 13:18:00,55.0,52.2,30.00,SE,135,7.8,13.0,90,0.00,,---,0.04,VWS V14.00,2014-12-20 21:18:00,
2014-12-20 13:23:00,55.2,52.3,30.00,East,90,6.0,7.8,90,0.00,,---,0.04,VWS V14.00,2014-12-20 21:23:00,
2014-12-20 13:28:00,55.2,52.3,30.00,SE,135,12.3,12.3,90,0.00,,---,0.04,VWS V14.00,2014-12-20 21:28:00,
2014-12-20 13:34:00,55.2,52.3,30.00,ESE,112,7.6,9.8,90,0.00,,---,0.04,VWS V14.00,2014-12-20 21:34:00,
2014-12-20 13:40:00,55.2,52.3,30.00,SE,135,12.3,13.4,90,0.00,,---,0.04,VWS V14.00,2014-12-20 21:40:00,
2014-12-20 13:45:00,55.4,52.2,30.00,SE,135,6.0,10.5,89,0.00,,---,0.04,VWS V14.00,2014-12-20 21:45:00,
2014-12-20 13:51:00,55.6,52.4,30.00,SE,135,13.0,13.0,89,0.00,,---,0.04,VWS V14.00,2014-12-20 21:51:00,
2014-12-20 13:56:00,55.6,52.1,30.00,ESE,112,10.7,10.7,88,0.00,,---,0.04,VWS V14.00,2014-12-20 21:56:00,
2014-12-20 14:01:00,55.8,52.3,30.00,SE,135,6.5,13.0,88,0.00,,---,0.04,VWS V14.00,2014-12-20 22:01:00,
2014-12-20 14:06:00,55.8,52.0,30.00,ESE,112,7.4,13.6,87,0.00,,---,0.04,VWS V14.00,2014-12-20 22:06:00,
2014-12-20 14:11:00,55.8,52.0,30.00,ESE,112,3.8,7.8,87,0.00,,---,0.04,VWS V14.00,2014-12-20 22:11:00,
2014-12-20 14:17:00,55.8,52.0,30.00,East,90,5.8,8.1,87,0.00,,---,0.04,VWS V14.00,2014-12-20 22:17:00,
2014-12-20 14:22:00,55.8,52.0,30.00,ESE,112,7.8,11.0,87,0.00,,---,0.04,VWS V14.00,2014-12-20 22:22:00,
2014-12-20 14:28:00,55.8,51.6,30.00,ESE,112,6.5,12.3,86,0.00,,---,0.04,VWS V14.00,2014-12-20 22:28:00,
2014-12-20 14:33:00,55.8,51.6,30.00,East,90,5.6,11.0,86,0.00,,---,0.04,VWS V14.00,2014-12-20 22:33:00,
2014-12-20 14:38:00,55.8,51.6,30.00,ESE,112,5.4,10.7,86,0.00,,---,0.04,VWS V14.00,2014-12-20 22:38:00,
2014-12-20 14:43:00,55.6,51.8,30.00,East,90,5.6,13.0,87,0.00,,---,0.04,VWS V14.00,2014-12-20 22:43:00,
2014-12-20 14:49:00,55.6,52.1,30.00,ESE,112,7.6,12.5,88,0.00,,---,0.04,VWS V14.00,2014-12-20 22:49:00,
2014-12-20 14:55:00,55.6,52.1,30.00,SE,135,4.0,7.6,88,0.00,,---,0.04,VWS V14.00,2014-12-20 22:55:00,
2014-12-20 15:01:00,55.4,52.5,30.00,SE,135,7.6,7.8,90,0.00,,---,0.04,VWS V14.00,2014-12-20 23:01:00,
2014-12-20 15:07:00,55.4,52.5,30.00,East,90,11.9,11.9,90,0.00,,---,0.04,VWS V14.00,2014-12-20 23:07:00,
2014-12-20 15:13:00,55.4,52.8,30.00,SE,135,2.9,10.1,91,0.00,,---,0.04,VWS V14.00,2014-12-20 23:13:00,
2014-12-20 15:18:00,55.4,52.8,30.00,ENE,68,8.5,12.1,91,0.00,,---,0.04,VWS V14.00,2014-12-20 23:18:00,
2014-12-20 15:23:00,55.6,53.0,30.00,SE,135,5.6,10.1,91,0.00,,---,0.04,VWS V14.00,2014-12-20 23:23:00,
2014-12-20 15:28:00,55.6,53.3,30.00,SE,135,5.4,7.4,92,0.00,,---,0.04,VWS V14.00,2014-12-20 23:28:00,
2014-12-20 15:34:00,55.6,53.3,30.00,ESE,112,4.0,6.3,92,0.00,,---,0.04,VWS V14.00,2014-12-20 23:34:00,
2014-12-20 15:40:00,55.6,53.0,30.00,SE,135,8.1,10.7,91,0.00,,---,0.04,VWS V14.00,2014-12-20 23:40:00,
2014-12-20 15:45:00,55.6,53.0,30.00,SE,135,4.9,7.8,91,0.00,,---,0.04,VWS V14.00,2014-12-20 23:45:00,
2014-12-20 15:50:00,55.6,53.0,30.00,ESE,112,8.1,8.7,91,0.00,,---,0.04,VWS V14.00,2014-12-20 23:50:00,
2014-12-20 15:56:00,55.6,53.0,30.00,SE,135,8.1,8.1,91,0.00,,---,0.04,VWS V14.00,2014-12-20 23:56:00,
2014-12-20 16:01:00,55.6,53.0,30.00,SE,135,6.5,8.1,91,0.00,,---,0.04,VWS V14.00,2014-12-21 00:01:00,
2014-12-20 16:06:00,55.6,53.0,30.00,SE,135,10.3,10.3,91,0.00,,---,0.04,VWS V14.00,2014-12-21 00:06:00,
2014-12-20 16:12:00,55.4,53.1,30.00,SE,135,5.4,6.0,92,0.00,,---,0.04,VWS V14.00,2014-12-21 00:12:00,
2014-12-20 16:17:00,55.4,53.1,30.00,East,90,3.1,7.4,92,0.00,,---,0.04,VWS V14.00,2014-12-21 00:17:00,
2014-12-20 16:22:00,55.4,53.1,30.00,SE,135,4.9,5.6,92,0.00,,---,0.04,VWS V14.00,2014-12-21 00:22:00,
2014-12-20 16:27:00,55.2,53.2,30.00,East,90,5.8,5.8,93,0.00,,---,0.04,VWS V14.00,2014-12-21 00:27:00,